createdAt,value
2018-01-25T00:00:18.122Z,35.83
2018-01-25T00:02:45.729Z,36.60
2018-01-25T00:05:13.320Z,32.57
2018-01-25T00:07:40.893Z,35.43
2018-01-25T00:10:08.649Z,26.70
2018-01-25T00:12:36.275Z,31.20
2018-01-25T00:15:03.855Z,31.67
2018-01-25T00:17:31.454Z,36.63
2018-01-25T00:19:59.011Z,34.90
2018-01-25T00:22:26.660Z,26.73
2018-01-25T00:24:54.288Z,37.83
2018-01-25T00:27:21.867Z,40.90
2018-01-25T00:29:49.557Z,31.77
2018-01-25T00:32:17.167Z,43.03
2018-01-25T00:34:44.749Z,44.73
2018-01-25T00:37:12.319Z,33.23
2018-01-25T00:39:40.141Z,13.00
2018-01-25T00:42:07.724Z,25.90
2018-01-25T00:44:35.307Z,39.83
2018-01-25T00:47:02.932Z,41.90
2018-01-25T00:49:30.517Z,42.13
2018-01-25T00:51:58.255Z,43.70
2018-01-25T00:54:25.872Z,53.27
2018-01-25T00:56:53.463Z,36.80
2018-01-25T00:59:21.026Z,27.37
2018-01-25T01:01:48.618Z,43.17
2018-01-25T01:04:16.180Z,31.67
2018-01-25T01:06:43.757Z,40.17
2018-01-25T01:09:11.347Z,29.97
2018-01-25T01:11:38.951Z,40.87
2018-01-25T01:14:06.573Z,31.23
2018-01-25T01:16:34.192Z,30.67
2018-01-25T01:19:01.759Z,27.10
2018-01-25T01:21:29.326Z,29.23
2018-01-25T01:23:56.965Z,26.23
2018-01-25T01:26:24.558Z,41.07
2018-01-25T01:28:52.127Z,34.00
2018-01-25T01:31:19.751Z,37.93
2018-01-25T01:33:47.318Z,41.37
2018-01-25T01:36:14.888Z,32.23
2018-01-25T01:38:42.520Z,31.83
2018-01-25T01:41:10.087Z,35.10
2018-01-25T01:43:37.673Z,34.70
2018-01-25T01:46:05.286Z,28.57
2018-01-25T01:48:32.863Z,31.53
2018-01-25T01:51:00.447Z,22.20
2018-01-25T01:53:28.069Z,27.53
2018-01-25T01:55:55.681Z,29.83
2018-01-25T01:58:23.251Z,32.95
2018-01-25T02:00:50.860Z,31.70
2018-01-25T02:03:18.432Z,31.55
2018-01-25T02:05:46.071Z,31.57
2018-01-25T02:08:13.678Z,39.47
2018-01-25T02:10:41.248Z,27.27
2018-01-25T02:13:08.820Z,28.43
2018-01-25T02:15:36.436Z,36.60
2018-01-25T02:18:04.009Z,26.57
2018-01-25T02:20:31.616Z,29.10
2018-01-25T02:22:59.203Z,22.20
2018-01-25T02:25:26.815Z,30.47
2018-01-25T02:27:54.421Z,29.10
2018-01-25T02:30:22.064Z,20.97
2018-01-25T02:32:49.651Z,32.30
2018-01-25T02:35:17.242Z,27.93
2018-01-25T02:37:44.861Z,30.53
2018-01-25T02:40:12.436Z,36.40
2018-01-25T02:42:40.011Z,24.37
2018-01-25T02:45:07.607Z,28.30
2018-01-25T02:47:35.180Z,21.83
2018-01-25T02:50:02.752Z,34.27
2018-01-25T02:52:30.357Z,25.27
2018-01-25T02:54:57.924Z,19.27
2018-01-25T02:57:25.513Z,17.87
2018-01-25T02:59:53.129Z,13.23
2018-01-25T03:02:20.721Z,25.57
2018-01-25T03:04:48.291Z,30.77
2018-01-25T03:07:15.906Z,25.30
2018-01-25T03:09:43.467Z,9.37
2018-01-25T03:12:11.090Z,24.75
2018-01-25T03:14:38.753Z,33.30
2018-01-25T03:17:06.425Z,12.27
2018-01-25T03:19:34.017Z,32.37
2018-01-25T03:22:01.614Z,26.03
2018-01-25T03:24:29.176Z,8.20
2018-01-25T03:26:56.760Z,23.93
2018-01-25T03:29:24.752Z,27.00
2018-01-25T03:31:52.440Z,28.17
2018-01-25T03:34:20.010Z,31.63
2018-01-25T03:36:47.631Z,23.23
2018-01-25T03:39:15.216Z,20.70
2018-01-25T03:41:42.783Z,25.97
2018-01-25T03:44:10.498Z,27.33
2018-01-25T03:46:38.079Z,28.70
2018-01-25T03:49:05.666Z,18.47
2018-01-25T03:51:33.290Z,24.90
2018-01-25T03:54:00.934Z,45.20
2018-01-25T03:56:28.490Z,30.47
2018-01-25T03:58:56.264Z,20.83
2018-01-25T04:01:23.988Z,27.33
2018-01-25T04:03:51.565Z,31.20
2018-01-25T04:06:19.169Z,32.27
2018-01-25T04:08:46.746Z,27.30
2018-01-25T04:11:14.329Z,28.63
2018-01-25T04:13:41.941Z,21.93
2018-01-25T04:16:09.532Z,25.47
2018-01-25T04:18:37.125Z,32.83
2018-01-25T04:21:04.751Z,30.00
2018-01-25T04:23:32.341Z,22.30
2018-01-25T04:25:59.928Z,26.43
2018-01-25T04:28:27.549Z,30.77
2018-01-25T04:30:55.133Z,26.07
2018-01-25T04:33:22.710Z,31.93
2018-01-25T04:35:50.323Z,19.57
2018-01-25T04:38:18.049Z,27.30
2018-01-25T04:40:45.635Z,28.20
2018-01-25T04:43:13.307Z,46.63
2018-01-25T04:45:40.901Z,38.47
2018-01-25T04:48:08.491Z,22.73
2018-01-25T04:50:36.356Z,28.70
2018-01-25T04:53:04.029Z,19.77
2018-01-25T04:55:31.600Z,31.20
2018-01-25T04:57:59.248Z,25.80
2018-01-25T05:00:26.828Z,31.53
2018-01-25T05:02:54.417Z,32.97
2018-01-25T05:05:22.041Z,24.80
2018-01-25T05:07:49.631Z,38.00
2018-01-25T05:10:17.230Z,22.97
2018-01-25T05:12:44.847Z,23.57
2018-01-25T05:15:12.428Z,36.20
2018-01-25T05:17:41.896Z,25.70
2018-01-25T05:20:09.565Z,23.47
2018-01-25T05:22:37.186Z,41.50
2018-01-25T05:25:04.763Z,27.43
2018-01-25T05:27:32.529Z,30.00
2018-01-25T05:30:00.114Z,31.77
2018-01-25T05:32:27.775Z,26.80
2018-01-25T05:34:55.395Z,42.03
2018-01-25T05:37:22.962Z,42.40
2018-01-25T05:39:50.566Z,68.87
2018-01-25T05:42:18.195Z,42.80
2018-01-25T05:44:45.773Z,33.07
2018-01-25T05:47:13.350Z,45.47
2018-01-25T05:49:41.014Z,31.23
2018-01-25T05:52:08.576Z,41.43
2018-01-25T05:54:36.168Z,40.97
2018-01-25T05:57:03.797Z,39.23
2018-01-25T05:59:31.386Z,52.63
2018-01-25T06:01:58.981Z,41.10
2018-01-25T06:04:26.709Z,31.03
2018-01-25T06:06:54.291Z,39.95
2018-01-25T06:09:21.864Z,26.63
2018-01-25T06:11:49.493Z,21.27
2018-01-25T06:14:17.078Z,33.23
2018-01-25T06:16:44.724Z,27.00
2018-01-25T06:19:12.338Z,21.40
2018-01-25T06:21:39.925Z,31.43
2018-01-25T06:24:07.511Z,30.07
2018-01-25T06:26:35.193Z,53.90
2018-01-25T06:29:02.762Z,43.17
2018-01-25T06:31:30.345Z,28.77
2018-01-25T06:33:57.983Z,37.83
2018-01-25T06:36:25.616Z,49.27
2018-01-25T06:38:53.213Z,28.97
2018-01-25T06:41:20.814Z,45.83
2018-01-25T06:43:48.387Z,41.67
2018-01-25T06:46:16.083Z,36.53
2018-01-25T06:48:43.687Z,39.77
2018-01-25T06:51:11.267Z,48.70
2018-01-25T06:53:38.847Z,48.93
2018-01-25T06:56:06.525Z,39.50
2018-01-25T06:58:34.095Z,66.00
2018-01-25T07:01:01.697Z,49.53
2018-01-25T07:03:29.500Z,39.70
2018-01-25T07:05:57.124Z,38.53
2018-01-25T07:08:24.825Z,48.73
2018-01-25T07:10:52.481Z,43.30
2018-01-25T07:13:20.051Z,55.97
2018-01-25T07:15:47.640Z,47.43
2018-01-25T07:18:15.473Z,51.13
2018-01-25T07:20:43.050Z,41.77
2018-01-25T07:23:10.628Z,37.63
2018-01-25T07:25:38.271Z,48.77
2018-01-25T07:28:05.856Z,44.03
2018-01-25T07:30:33.436Z,55.17
2018-01-25T07:33:01.062Z,72.10
2018-01-25T07:35:28.652Z,44.30
2018-01-25T07:37:56.224Z,53.10
2018-01-25T07:40:23.846Z,66.40
2018-01-25T07:42:51.874Z,53.90
2018-01-25T07:45:19.518Z,42.50
2018-01-25T07:47:47.148Z,50.10
2018-01-25T07:50:14.752Z,43.97
2018-01-25T07:52:42.400Z,57.43
2018-01-25T07:55:10.015Z,54.47
2018-01-25T07:57:43.271Z,32.43
2018-01-25T08:00:10.843Z,56.43
2018-01-25T08:02:38.491Z,38.53
2018-01-25T08:05:06.085Z,29.73
2018-01-25T08:07:33.694Z,57.13
2018-01-25T08:10:01.279Z,49.60
2018-01-25T08:12:28.861Z,38.20
2018-01-25T08:14:56.485Z,38.40
2018-01-25T08:17:24.057Z,43.30
2018-01-25T08:19:51.649Z,55.93
2018-01-25T08:22:19.281Z,59.27
2018-01-25T08:24:46.915Z,93.73
2018-01-25T08:27:14.505Z,79.80
2018-01-25T08:29:42.127Z,105.33
2018-01-25T08:32:09.738Z,68.10
2018-01-25T08:34:37.298Z,62.20
2018-01-25T08:37:04.920Z,56.17
2018-01-25T08:39:32.491Z,48.27
2018-01-25T08:42:00.064Z,50.90
2018-01-25T08:44:27.663Z,44.87
2018-01-25T08:46:55.220Z,43.00
2018-01-25T08:49:22.799Z,56.77
2018-01-25T08:51:50.412Z,39.17
2018-01-25T08:54:18.001Z,54.43
2018-01-25T08:56:45.581Z,47.43
2018-01-25T08:59:13.183Z,43.20
2018-01-25T09:01:40.763Z,39.60
2018-01-25T09:04:08.350Z,49.33
2018-01-25T09:06:35.948Z,57.77
2018-01-25T09:09:03.627Z,35.50
2018-01-25T09:11:31.484Z,44.90
2018-01-25T09:13:59.099Z,66.93
2018-01-25T09:16:26.675Z,34.87
2018-01-25T09:18:54.320Z,48.47
2018-01-25T09:21:21.917Z,61.03
2018-01-25T09:23:49.476Z,29.80
2018-01-25T09:26:17.044Z,46.40
2018-01-25T09:28:44.648Z,32.17
2018-01-25T09:31:12.228Z,35.53
2018-01-25T09:33:39.795Z,34.47
2018-01-25T09:36:07.398Z,33.37
2018-01-25T09:38:34.972Z,39.83
2018-01-25T09:41:02.544Z,36.13
2018-01-25T09:43:30.215Z,36.03
2018-01-25T09:45:57.799Z,35.37
2018-01-25T09:48:25.392Z,38.27
2018-01-25T09:50:53.043Z,35.87
2018-01-25T09:53:20.633Z,45.60
2018-01-25T09:55:48.220Z,46.07
2018-01-25T09:58:15.838Z,34.60
2018-01-25T10:00:43.493Z,45.37
2018-01-25T10:03:11.080Z,39.47
2018-01-25T10:05:38.687Z,40.87
2018-01-25T10:08:06.412Z,35.27
2018-01-25T10:10:33.990Z,41.10
2018-01-25T10:13:01.589Z,20.30
2018-01-25T10:15:29.163Z,32.10
2018-01-25T10:17:56.732Z,30.40
2018-01-25T10:20:24.355Z,30.13
2018-01-25T10:22:51.937Z,26.20
2018-01-25T10:25:19.534Z,22.10
2018-01-25T10:27:47.161Z,16.80
2018-01-25T10:30:14.755Z,17.53
2018-01-25T10:32:42.436Z,20.80
2018-01-25T10:35:10.064Z,18.10
2018-01-25T10:37:37.742Z,16.10
2018-01-25T10:40:05.324Z,23.73
2018-01-25T10:42:33.085Z,15.43
2018-01-25T10:45:00.658Z,15.90
2018-01-25T10:47:28.222Z,28.00
2018-01-25T10:49:55.836Z,42.90
2018-01-25T10:52:23.441Z,25.90
2018-01-25T10:54:50.995Z,20.03
2018-01-25T10:57:18.612Z,33.10
2018-01-25T10:59:46.179Z,25.23
2018-01-25T11:02:13.823Z,61.37
2018-01-25T11:04:41.447Z,50.90
2018-01-25T11:07:09.020Z,57.73
2018-01-25T11:09:36.586Z,44.10
2018-01-25T11:12:04.213Z,42.90
2018-01-25T11:14:31.770Z,58.53
2018-01-25T11:16:59.355Z,48.93
2018-01-25T11:19:26.971Z,39.43
2018-01-25T11:21:54.529Z,33.47
2018-01-25T11:24:22.106Z,40.80
2018-01-25T11:26:49.700Z,44.17
2018-01-25T11:29:17.260Z,40.43
2018-01-25T11:31:44.815Z,40.97
2018-01-25T11:34:12.425Z,52.17
2018-01-25T11:36:39.964Z,34.43
2018-01-25T11:39:07.524Z,35.60
2018-01-25T11:41:35.125Z,40.27
2018-01-25T11:44:02.688Z,37.47
2018-01-25T11:46:30.297Z,52.73
2018-01-25T11:48:57.883Z,37.93
2018-01-25T11:51:25.449Z,42.23
2018-01-25T11:53:53.002Z,39.33
2018-01-25T11:56:20.601Z,41.57
2018-01-25T11:58:48.152Z,65.80
2018-01-25T12:01:15.718Z,69.53
2018-01-25T12:03:43.312Z,63.23
2018-01-25T12:06:10.889Z,60.97
2018-01-25T12:08:38.444Z,64.17
2018-01-25T12:11:06.034Z,58.37
2018-01-25T12:13:33.648Z,57.03
2018-01-25T12:16:01.225Z,56.60
2018-01-25T12:18:28.852Z,91.53
2018-01-25T12:20:56.499Z,52.30
2018-01-25T12:23:24.061Z,53.60
2018-01-25T12:25:51.655Z,58.40
2018-01-25T12:28:19.235Z,44.70
2018-01-25T12:30:46.802Z,93.07
2018-01-25T12:33:14.421Z,68.07
2018-01-25T12:35:41.974Z,55.03
2018-01-25T12:38:09.539Z,59.00
2018-01-25T12:40:37.171Z,58.53
2018-01-25T12:43:04.776Z,54.33
2018-01-25T12:45:32.508Z,58.07
2018-01-25T12:48:00.095Z,35.47
2018-01-25T12:50:27.657Z,36.00
2018-01-25T12:52:55.243Z,42.17
2018-01-25T12:55:22.833Z,37.90
2018-01-25T12:57:50.388Z,33.67
2018-01-25T13:00:17.955Z,32.23
2018-01-25T13:02:45.790Z,45.53
2018-01-25T13:05:13.376Z,54.97
2018-01-25T13:07:40.947Z,30.13
2018-01-25T13:10:08.528Z,32.27
2018-01-25T13:12:36.124Z,39.57
2018-01-25T13:15:03.675Z,52.87
2018-01-25T13:17:31.498Z,57.10
2018-01-25T13:19:59.075Z,36.13
2018-01-25T13:22:26.625Z,33.47
2018-01-25T13:24:54.253Z,25.50
2018-01-25T13:27:21.814Z,28.87
2018-01-25T13:29:49.413Z,40.67
2018-01-25T13:32:19.689Z,29.60
2018-01-25T13:34:47.278Z,62.15
2018-01-25T13:37:15.205Z,56.93
2018-01-25T13:39:42.867Z,110.03
2018-01-25T13:42:10.481Z,76.13
2018-01-25T13:44:38.051Z,81.60
2018-01-25T13:47:05.707Z,70.60
2018-01-25T13:49:33.304Z,62.13
2018-01-25T13:52:00.960Z,53.27
2018-01-25T13:54:28.643Z,99.00
2018-01-25T13:56:56.244Z,59.17
2018-01-25T13:59:23.804Z,23.50
2018-01-25T14:01:51.422Z,41.45
2018-01-25T14:04:19.014Z,39.17
2018-01-25T14:06:46.584Z,65.03
2018-01-25T14:09:15.267Z,110.67
2018-01-25T14:11:42.867Z,60.20
2018-01-25T14:14:10.461Z,69.63
2018-01-25T14:16:38.080Z,95.27
2018-01-25T14:19:05.640Z,60.47
2018-01-25T14:21:33.212Z,41.40
2018-01-25T14:24:00.795Z,74.37
2018-01-25T14:26:28.361Z,57.20
2018-01-25T14:28:55.928Z,76.17
2018-01-25T14:31:23.578Z,45.07
2018-01-25T14:33:51.191Z,43.00
2018-01-25T14:36:18.734Z,79.53
2018-01-25T14:38:46.367Z,66.57
2018-01-25T14:41:13.980Z,83.57
2018-01-25T14:43:41.560Z,122.07
2018-01-25T14:46:09.187Z,90.50
2018-01-25T14:48:36.844Z,70.63
2018-01-25T14:51:04.406Z,62.30
2018-01-25T14:53:32.176Z,66.33
2018-01-25T14:55:59.745Z,100.80
2018-01-25T14:58:27.294Z,78.27
2018-01-25T15:00:54.877Z,56.83
2018-01-25T15:03:22.432Z,51.83
2018-01-25T15:05:49.980Z,59.13
2018-01-25T15:08:17.577Z,74.07
2018-01-25T15:10:45.141Z,65.63
2018-01-25T15:13:12.714Z,64.10
2018-01-25T15:15:40.318Z,62.13
2018-01-25T15:18:07.892Z,48.60
2018-01-25T15:20:35.462Z,56.23
2018-01-25T15:23:03.119Z,44.73
2018-01-25T15:25:36.340Z,32.50
2018-01-25T15:28:03.913Z,41.87
2018-01-25T15:30:31.482Z,43.93
2018-01-25T15:32:59.064Z,41.03
2018-01-25T15:35:26.745Z,42.40
2018-01-25T15:37:54.573Z,86.17
2018-01-25T15:40:22.135Z,55.50
2018-01-25T15:42:49.737Z,63.20
2018-01-25T15:45:17.297Z,146.07
2018-01-25T15:47:44.869Z,67.90
2018-01-25T15:50:12.486Z,58.13
2018-01-25T15:52:40.120Z,62.63
2018-01-25T15:55:07.679Z,41.93
2018-01-25T15:57:35.254Z,64.13
2018-01-25T16:00:02.842Z,47.00
2018-01-25T16:02:30.391Z,76.33
2018-01-25T16:04:58.000Z,57.50
2018-01-25T16:07:25.890Z,58.23
2018-01-25T16:09:53.552Z,44.40
2018-01-25T16:12:21.186Z,71.20
2018-01-25T16:14:48.866Z,67.83
2018-01-25T16:17:16.471Z,47.57
2018-01-25T16:19:44.138Z,73.37
2018-01-25T16:22:11.744Z,77.30
2018-01-25T16:24:39.507Z,53.70
2018-01-25T16:27:07.014Z,61.13
2018-01-25T16:29:34.654Z,59.43
2018-01-25T16:32:02.217Z,46.03
2018-01-25T16:34:29.799Z,63.93
2018-01-25T16:36:57.363Z,58.77
2018-01-25T16:39:24.963Z,62.40
2018-01-25T16:41:52.581Z,58.83
2018-01-25T16:44:20.162Z,53.37
2018-01-25T16:46:47.734Z,55.10
2018-01-25T16:49:15.373Z,54.23
2018-01-25T16:51:42.940Z,54.80
2018-01-25T16:54:10.542Z,76.23
2018-01-25T16:56:38.151Z,99.30
2018-01-25T16:59:05.735Z,63.67
2018-01-25T17:01:33.291Z,54.27
2018-01-25T17:04:00.903Z,48.47
2018-01-25T17:06:28.485Z,47.57
2018-01-25T17:08:56.112Z,87.00
2018-01-25T17:11:23.721Z,55.03
2018-01-25T17:13:51.305Z,49.03
2018-01-25T17:16:18.880Z,54.47
2018-01-25T17:18:46.497Z,50.40
2018-01-25T17:21:14.057Z,81.03
2018-01-25T17:23:41.619Z,50.97
2018-01-25T17:26:09.250Z,58.43
2018-01-25T17:28:36.840Z,61.10
2018-01-25T17:31:04.437Z,76.05
2018-01-25T17:33:32.038Z,59.63
2018-01-25T17:35:59.616Z,47.80
2018-01-25T17:38:27.162Z,39.57
2018-01-25T17:40:54.755Z,51.73
2018-01-25T17:43:22.701Z,49.53
2018-01-25T17:45:50.286Z,40.23
2018-01-25T17:48:17.888Z,42.77
2018-01-25T17:50:45.465Z,39.37
2018-01-25T17:53:13.027Z,34.70
2018-01-25T17:55:41.196Z,48.50
2018-01-25T17:58:08.831Z,90.47
2018-01-25T18:00:36.420Z,56.77
2018-01-25T18:03:05.476Z,50.30
2018-01-25T18:05:33.141Z,45.10
2018-01-25T18:08:00.696Z,44.13
2018-01-25T18:10:28.403Z,36.60
2018-01-25T18:12:55.960Z,57.60
2018-01-25T18:15:23.522Z,40.10
2018-01-25T18:17:51.123Z,47.17
2018-01-25T18:20:19.108Z,39.10
2018-01-25T18:22:46.682Z,44.23
2018-01-25T18:25:14.297Z,56.80
2018-01-25T18:27:41.899Z,46.47
2018-01-25T18:30:09.642Z,42.93
2018-01-25T18:32:37.263Z,61.93
2018-01-25T18:35:04.819Z,46.03
2018-01-25T18:37:32.381Z,37.20
2018-01-25T18:40:00.051Z,67.77
2018-01-25T18:42:27.634Z,51.60
2018-01-25T18:44:55.385Z,78.17
2018-01-25T18:47:23.044Z,56.47
2018-01-25T18:49:50.593Z,40.87
2018-01-25T18:52:18.168Z,45.13
2018-01-25T18:54:45.765Z,67.90
2018-01-25T18:57:13.340Z,75.90
2018-01-25T18:59:40.914Z,65.80
2018-01-25T19:02:08.521Z,58.27
2018-01-25T19:04:36.080Z,49.10
2018-01-25T19:07:03.734Z,58.23
2018-01-25T19:09:31.339Z,63.40
2018-01-25T19:11:59.038Z,52.10
2018-01-25T19:14:26.974Z,59.30
2018-01-25T19:16:54.573Z,57.63
2018-01-25T19:19:22.150Z,72.43
2018-01-25T19:21:49.713Z,66.28
2018-01-25T19:24:17.305Z,88.43
2018-01-25T19:26:44.905Z,70.00
2018-01-25T19:29:12.479Z,66.03
2018-01-25T19:31:40.146Z,70.60
2018-01-25T19:34:07.797Z,77.78
2018-01-25T19:36:35.473Z,79.30
2018-01-25T19:39:03.167Z,70.93
2018-01-25T19:41:30.737Z,74.40
2018-01-25T19:43:58.304Z,74.07
2018-01-25T19:46:25.891Z,82.43
2018-01-25T19:48:53.470Z,72.43
2018-01-25T19:51:21.034Z,73.30
2018-01-25T19:53:48.694Z,78.03
2018-01-25T19:56:16.256Z,72.83
2018-01-25T19:58:43.824Z,72.47
2018-01-25T20:01:11.423Z,64.07
2018-01-25T20:03:38.973Z,78.60
2018-01-25T20:06:06.555Z,75.77
2018-01-25T20:08:34.154Z,67.77
2018-01-25T20:11:01.711Z,65.80
2018-01-25T20:13:29.281Z,68.90
2018-01-25T20:15:56.881Z,88.00
2018-01-25T20:18:24.435Z,59.87
2018-01-25T20:20:52.002Z,60.53
2018-01-25T20:23:19.627Z,65.63
2018-01-25T20:25:47.191Z,71.77
2018-01-25T20:28:14.761Z,54.30
2018-01-25T20:30:42.363Z,61.73
2018-01-25T20:33:09.950Z,84.05
2018-01-25T20:35:38.105Z,68.73
2018-01-25T20:38:07.750Z,77.17
2018-01-25T20:40:37.111Z,67.93
2018-01-25T20:43:05.214Z,73.40
2018-01-25T20:45:34.872Z,60.70
2018-01-25T20:48:04.033Z,54.60
2018-01-25T20:50:31.803Z,66.35
2018-01-25T20:52:59.959Z,84.13
2018-01-25T20:55:27.932Z,68.90
2018-01-25T20:57:55.497Z,62.70
2018-01-25T21:00:23.144Z,72.53
2018-01-25T21:02:50.704Z,59.37
2018-01-25T21:05:18.524Z,70.30
2018-01-25T21:07:46.138Z,58.23
2018-01-25T21:10:13.782Z,66.53
2018-01-25T21:12:41.466Z,63.13
2018-01-25T21:15:09.076Z,65.47
2018-01-25T21:17:36.655Z,57.77
2018-01-25T21:20:04.291Z,64.23
2018-01-25T21:22:31.901Z,76.23
2018-01-25T21:24:59.540Z,64.53
2018-01-25T21:27:27.105Z,55.40
2018-01-25T21:29:54.694Z,61.37
2018-01-25T21:32:22.256Z,72.33
2018-01-25T21:34:50.007Z,69.40
2018-01-25T21:37:18.544Z,65.67
2018-01-25T21:39:46.123Z,71.57
2018-01-25T21:42:13.730Z,72.17
2018-01-25T21:44:41.417Z,58.50
2018-01-25T21:47:08.974Z,67.17
2018-01-25T21:49:36.544Z,70.17
2018-01-25T21:52:04.262Z,71.03
2018-01-25T21:54:31.832Z,62.30
2018-01-25T21:56:59.656Z,62.80
2018-01-25T21:59:27.246Z,58.50
2018-01-25T22:01:54.806Z,61.63
2018-01-25T22:04:22.755Z,62.17
2018-01-25T22:06:50.375Z,62.93
2018-01-25T22:09:17.971Z,68.73
2018-01-25T22:11:45.579Z,49.47
2018-01-25T22:14:13.636Z,60.47
2018-01-25T22:16:41.199Z,59.70
2018-01-25T22:19:08.781Z,58.33
2018-01-25T22:21:36.614Z,58.07
2018-01-25T22:24:04.463Z,61.57
2018-01-25T22:26:32.053Z,63.67
2018-01-25T22:28:59.678Z,55.83
2018-01-25T22:31:27.236Z,53.60
2018-01-25T22:33:54.802Z,67.57
2018-01-25T22:36:22.430Z,59.87
2018-01-25T22:38:49.995Z,58.13
2018-01-25T22:41:17.721Z,52.33
2018-01-25T22:43:45.365Z,53.20
2018-01-25T22:46:13.017Z,48.63
2018-01-25T22:48:40.626Z,48.60
2018-01-25T22:51:08.237Z,58.33
2018-01-25T22:53:35.844Z,60.20
2018-01-25T22:56:03.409Z,50.57
2018-01-25T22:58:31.071Z,79.30
2018-01-25T23:00:58.700Z,71.27
2018-01-25T23:03:26.309Z,59.30
2018-01-25T23:05:53.874Z,52.13
2018-01-25T23:08:21.427Z,52.90
2018-01-25T23:10:49.023Z,54.93
2018-01-25T23:13:16.602Z,57.17
2018-01-25T23:15:44.177Z,53.77
2018-01-25T23:18:12.020Z,55.47
2018-01-25T23:20:39.586Z,59.43
2018-01-25T23:23:07.167Z,48.37
2018-01-25T23:25:34.754Z,50.07
2018-01-25T23:28:02.326Z,54.90
2018-01-25T23:30:29.940Z,60.17
2018-01-25T23:32:57.559Z,85.90
2018-01-25T23:35:25.246Z,67.07
2018-01-25T23:37:52.803Z,58.80
2018-01-25T23:40:20.402Z,74.70
2018-01-25T23:42:47.969Z,56.93
2018-01-25T23:45:15.561Z,57.23
2018-01-25T23:47:43.354Z,58.57
2018-01-25T23:50:11.028Z,59.75
2018-01-25T23:52:38.588Z,61.07
2018-01-25T23:55:07.491Z,54.67
2018-01-25T23:57:35.242Z,58.80
